createdAt,value
2022-12-28T00:02:26.483Z,5.46
2022-12-28T00:07:29.496Z,5.45
2022-12-28T00:12:33.101Z,5.44
2022-12-28T00:17:37.720Z,5.42
2022-12-28T00:22:41.198Z,5.45
2022-12-28T00:27:44.245Z,5.44
2022-12-28T00:32:48.513Z,5.45
2022-12-28T00:37:51.508Z,5.49
2022-12-28T00:42:54.502Z,5.59
2022-12-28T00:47:58.841Z,5.76
2022-12-28T00:53:01.926Z,5.86
2022-12-28T00:58:05.061Z,5.95
2022-12-28T01:03:09.462Z,5.98
2022-12-28T01:08:12.642Z,6.09
2022-12-28T01:13:15.760Z,6.13
2022-12-28T01:18:20.176Z,6.19
2022-12-28T01:23:23.173Z,6.20
2022-12-28T01:28:26.198Z,6.30
2022-12-28T01:33:30.525Z,6.34
2022-12-28T01:38:33.457Z,6.35
2022-12-28T01:43:42.097Z,6.31
2022-12-28T01:48:59.717Z,6.32
2022-12-28T01:54:03.909Z,6.38
2022-12-28T01:59:07.071Z,6.30
2022-12-28T02:04:14.066Z,6.27
2022-12-28T02:09:20.717Z,6.25
2022-12-28T02:14:24.102Z,6.22
2022-12-28T02:19:38.221Z,6.27
2022-12-28T02:25:12.053Z,6.29
2022-12-28T02:30:18.586Z,6.30
2022-12-28T02:35:34.527Z,6.30
2022-12-28T02:40:42.399Z,6.33
2022-12-28T02:46:05.739Z,6.34
2022-12-28T02:51:48.723Z,6.36
2022-12-28T02:56:56.779Z,6.38
2022-12-28T03:02:15.745Z,6.41
2022-12-28T03:07:43.812Z,6.46
2022-12-28T03:12:51.871Z,6.53
2022-12-28T03:18:20.414Z,6.57
2022-12-28T03:23:42.652Z,6.63
2022-12-28T03:29:05.390Z,6.71
2022-12-28T03:34:15.116Z,6.79
2022-12-28T03:39:33.534Z,6.85
2022-12-28T03:44:37.159Z,6.91
2022-12-28T03:49:42.346Z,7.01
2022-12-28T03:54:46.292Z,7.15
2022-12-28T03:59:51.575Z,7.22
2022-12-28T04:04:56.092Z,7.31
2022-12-28T04:09:59.532Z,7.34
2022-12-28T04:15:02.645Z,7.39
2022-12-28T04:20:09.667Z,7.43
2022-12-28T04:25:12.691Z,7.45
2022-12-28T04:30:16.409Z,7.47
2022-12-28T04:35:20.806Z,7.53
2022-12-28T04:40:26.070Z,7.59
2022-12-28T04:45:29.184Z,7.62
2022-12-28T04:50:33.633Z,7.69
2022-12-28T04:55:36.625Z,7.72
2022-12-28T05:00:39.772Z,7.76
2022-12-28T05:05:44.143Z,7.81
2022-12-28T05:10:47.112Z,7.83
2022-12-28T05:15:50.232Z,7.88
2022-12-28T05:21:01.739Z,7.93
2022-12-28T05:26:06.037Z,7.91
2022-12-28T05:31:12.324Z,7.96
2022-12-28T05:36:19.631Z,8.07
2022-12-28T05:41:24.635Z,8.13
2022-12-28T05:46:32.304Z,8.15
2022-12-28T05:51:39.546Z,8.19
2022-12-28T05:56:42.802Z,8.25
2022-12-28T06:01:45.915Z,8.30
2022-12-28T06:06:50.805Z,8.33
2022-12-28T06:11:53.783Z,8.37
2022-12-28T06:16:56.841Z,8.38
2022-12-28T06:22:01.295Z,8.42
2022-12-28T06:27:04.261Z,8.48
2022-12-28T06:32:07.403Z,8.52
2022-12-28T06:37:11.821Z,8.55
2022-12-28T06:42:14.755Z,8.57
2022-12-28T06:47:18.742Z,8.59
2022-12-28T06:52:23.383Z,8.60
2022-12-28T06:57:26.372Z,8.61
2022-12-28T07:02:29.560Z,8.64
2022-12-28T07:07:34.046Z,8.63
2022-12-28T07:12:37.200Z,8.69
2022-12-28T07:17:40.119Z,8.72
2022-12-28T07:22:44.615Z,8.75
2022-12-28T07:27:47.601Z,8.74
2022-12-28T07:32:50.645Z,8.78
2022-12-28T07:37:55.295Z,8.79
2022-12-28T07:43:01.129Z,8.79
2022-12-28T07:48:04.248Z,8.81
2022-12-28T07:53:08.637Z,8.85
2022-12-28T07:58:11.646Z,8.88
2022-12-28T08:03:14.779Z,8.87
2022-12-28T08:08:19.168Z,8.91
2022-12-28T08:13:22.172Z,8.95
2022-12-28T08:18:25.181Z,8.96
2022-12-28T08:23:29.905Z,8.97
2022-12-28T08:28:32.902Z,8.98
2022-12-28T08:33:36.420Z,9.00
2022-12-28T08:38:44.221Z,9.00
2022-12-28T08:43:47.942Z,8.99
2022-12-28T08:48:52.078Z,9.00
2022-12-28T08:53:56.510Z,9.03
2022-12-28T08:59:00.386Z,9.08
2022-12-28T09:04:03.884Z,9.13
2022-12-28T09:09:11.679Z,9.18
2022-12-28T09:14:22.519Z,9.22
2022-12-28T09:19:26.108Z,9.25
2022-12-28T09:24:30.508Z,9.26
2022-12-28T09:29:33.408Z,9.27
2022-12-28T09:34:37.873Z,9.31
2022-12-28T09:39:42.712Z,9.34
2022-12-28T09:44:53.717Z,9.37
2022-12-28T09:50:12.758Z,9.36
2022-12-28T09:55:19.367Z,9.36
2022-12-28T10:00:24.512Z,9.34
2022-12-28T10:05:28.093Z,9.34
2022-12-28T10:10:32.968Z,9.34
2022-12-28T10:15:36.058Z,9.21
2022-12-28T10:20:40.978Z,9.18
2022-12-28T10:25:45.925Z,9.14
2022-12-28T10:31:03.077Z,9.08
2022-12-28T10:36:06.579Z,9.04
2022-12-28T10:41:14.492Z,9.02
2022-12-28T10:46:20.179Z,9.00
2022-12-28T10:51:25.626Z,8.98
2022-12-28T10:56:30.979Z,8.99
2022-12-28T11:01:34.121Z,8.97
2022-12-28T11:06:51.524Z,8.97
2022-12-28T11:11:58.140Z,8.98
2022-12-28T11:17:15.448Z,8.98
2022-12-28T11:22:24.415Z,8.95
2022-12-28T11:27:29.732Z,8.93
2022-12-28T11:32:39.290Z,8.92
2022-12-28T11:37:50.114Z,8.90
2022-12-28T11:42:58.380Z,8.91
2022-12-28T11:48:37.061Z,8.90
2022-12-28T11:54:00.078Z,8.85
2022-12-28T11:59:20.750Z,8.85
2022-12-28T12:04:41.716Z,8.87
2022-12-28T12:09:46.781Z,8.88
2022-12-28T12:14:58.526Z,8.93
2022-12-28T12:20:06.851Z,8.97
2022-12-28T12:25:19.502Z,9.00
2022-12-28T12:30:24.938Z,9.03
2022-12-28T12:35:35.108Z,8.98
2022-12-28T12:41:06.101Z,9.01
2022-12-28T12:46:30.321Z,9.10
2022-12-28T12:51:40.994Z,9.20
2022-12-28T12:56:49.772Z,9.27
2022-12-28T13:01:59.977Z,9.31
2022-12-28T13:07:05.834Z,9.33
2022-12-28T13:12:15.841Z,9.33
2022-12-28T13:17:22.919Z,9.34
2022-12-28T13:22:30.743Z,9.34
2022-12-28T13:27:36.581Z,9.33
2022-12-28T13:32:52.227Z,9.29
2022-12-28T13:38:03.757Z,9.35
2022-12-28T13:43:33.273Z,9.39
2022-12-28T13:48:42.716Z,9.45
2022-12-28T13:53:48.895Z,9.52
2022-12-28T13:58:55.620Z,9.50
2022-12-28T14:04:42.469Z,9.52
2022-12-28T14:09:27.937Z,9.54
2022-12-28T14:14:31.275Z,9.57
2022-12-28T14:19:36.489Z,9.56
2022-12-28T14:24:59.577Z,9.62
2022-12-28T14:30:03.022Z,9.61
2022-12-28T14:35:16.776Z,9.57
2022-12-28T14:40:28.131Z,9.48
2022-12-28T14:46:05.039Z,9.43
2022-12-28T14:51:25.654Z,9.41
2022-12-28T14:56:35.905Z,9.39
2022-12-28T15:01:43.290Z,9.40
2022-12-28T15:06:48.782Z,9.38
2022-12-28T15:12:09.891Z,9.37
2022-12-28T15:17:14.835Z,9.36
2022-12-28T15:22:19.764Z,9.36
2022-12-28T15:27:22.769Z,9.34
2022-12-28T15:32:25.864Z,9.26
2022-12-28T15:37:30.211Z,9.15
2022-12-28T15:42:38.227Z,9.07
2022-12-28T15:47:43.486Z,8.98
2022-12-28T15:52:47.836Z,8.93
2022-12-28T15:57:50.798Z,8.85
2022-12-28T16:02:55.410Z,8.79
2022-12-28T16:07:59.983Z,8.75
2022-12-28T16:13:02.977Z,8.71
2022-12-28T16:18:06.033Z,8.68
2022-12-28T16:23:11.019Z,8.64
2022-12-28T16:28:15.008Z,8.61
2022-12-28T16:33:18.001Z,8.58
2022-12-28T16:38:25.193Z,8.57
2022-12-28T16:43:28.256Z,8.54
2022-12-28T16:48:31.154Z,8.55
2022-12-28T16:53:37.872Z,8.52
2022-12-28T16:58:44.985Z,8.51
2022-12-28T17:03:50.594Z,8.51
2022-12-28T17:08:54.897Z,8.50
2022-12-28T17:14:02.354Z,8.50
2022-12-28T17:19:05.683Z,8.49
2022-12-28T17:24:10.387Z,8.51
2022-12-28T17:29:13.353Z,8.53
2022-12-28T17:34:16.884Z,8.53
2022-12-28T17:39:21.405Z,8.50
2022-12-28T17:44:24.362Z,8.51
2022-12-28T17:49:28.040Z,8.49
2022-12-28T17:54:32.930Z,8.51
2022-12-28T17:59:35.991Z,8.51
2022-12-28T18:04:39.370Z,8.50
2022-12-28T18:09:43.669Z,8.51
2022-12-28T18:14:46.659Z,8.51
2022-12-28T18:19:49.803Z,8.52
2022-12-28T18:24:54.623Z,8.52
2022-12-28T18:29:59.327Z,8.52
2022-12-28T18:35:02.374Z,8.50
2022-12-28T18:40:08.644Z,8.55
2022-12-28T18:45:12.208Z,8.59
2022-12-28T18:50:15.727Z,8.60
2022-12-28T18:55:22.368Z,8.64
2022-12-28T19:00:26.834Z,8.67
2022-12-28T19:05:29.773Z,8.73
2022-12-28T19:10:34.430Z,8.76
2022-12-28T19:15:37.873Z,8.83
2022-12-28T19:20:42.392Z,8.87
2022-12-28T19:25:46.816Z,8.90
2022-12-28T19:30:51.483Z,8.96
2022-12-28T19:35:54.469Z,8.98
2022-12-28T19:41:03.803Z,9.00
2022-12-28T19:46:09.327Z,9.00
2022-12-28T19:51:12.751Z,9.06
2022-12-28T19:56:18.223Z,9.07
2022-12-28T20:01:24.940Z,9.14
2022-12-28T20:06:31.050Z,9.16
2022-12-28T20:11:35.536Z,9.21
2022-12-28T20:16:38.524Z,9.30
2022-12-28T20:21:42.521Z,9.39
2022-12-28T20:26:47.050Z,9.44
2022-12-28T20:31:50.940Z,9.50
2022-12-28T20:36:54.269Z,9.52
2022-12-28T20:42:18.638Z,9.57
2022-12-28T20:47:21.727Z,9.62
2022-12-28T20:52:24.737Z,9.62
2022-12-28T20:57:29.206Z,9.64
2022-12-28T21:02:32.297Z,9.72
2022-12-28T21:07:35.410Z,9.75
2022-12-28T21:12:39.804Z,9.79
2022-12-28T21:17:42.787Z,9.82
2022-12-28T21:22:45.807Z,9.81
2022-12-28T21:27:50.461Z,9.75
2022-12-28T21:32:54.102Z,9.76
2022-12-28T21:37:57.109Z,9.76
2022-12-28T21:43:01.438Z,9.84
2022-12-28T21:48:04.863Z,9.81
2022-12-28T21:53:07.946Z,9.77
2022-12-28T21:58:12.334Z,9.75
2022-12-28T22:03:32.607Z,9.80
2022-12-28T22:08:53.892Z,9.82
2022-12-28T22:13:58.289Z,9.96
2022-12-28T22:19:03.055Z,10.01
2022-12-28T22:24:07.052Z,10.02
2022-12-28T22:29:11.468Z,10.06
2022-12-28T22:34:14.460Z,10.09
2022-12-28T22:39:17.508Z,10.13
2022-12-28T22:44:21.909Z,10.03
2022-12-28T22:49:24.925Z,9.99
2022-12-28T22:54:30.608Z,10.09
2022-12-28T22:59:34.993Z,10.13
2022-12-28T23:04:38.245Z,10.19
2022-12-28T23:09:41.253Z,10.24
2022-12-28T23:15:02.912Z,10.27
2022-12-28T23:20:24.111Z,10.33
2022-12-28T23:25:45.813Z,10.35
2022-12-28T23:30:51.764Z,10.39
2022-12-28T23:35:54.792Z,10.43
2022-12-28T23:41:14.317Z,10.46
2022-12-28T23:46:18.846Z,10.51
2022-12-28T23:51:21.857Z,10.54
2022-12-28T23:56:25.847Z,10.53
